Time;durP1;ratioP1;P1;durP2;ratioP2;P2;SDS_P1;SDS_P2;PMS_P1;PMS_P2;Temp;Humidity;BMP_temperature;BMP_pressure;BME280_temperature;BME280_humidity;BME280_pressure;Samples;Min_cycle;Max_cycle;Signal;HPM_P1;HPM_P2
2023/03/16 00:02:10;;;;;;;5.37;4.10;;;6.00;1.00;;;;;;5096389;28;20249;-59
2023/03/16 00:04:37;;;;;;;5.80;3.50;;;6.20;1.00;;;;;;5079318;28;20200;-59
2023/03/16 00:07:06;;;;;;;5.03;3.27;;;6.10;1.00;;;;;;5096615;28;20303;-63
2023/03/16 00:09:33;;;;;;;5.67;4.07;;;6.20;1.00;;;;;;5095633;28;20256;-59
2023/03/16 00:12:02;;;;;;;5.20;3.50;;;6.20;1.00;;;;;;5079389;28;20199;-59
2023/03/16 00:14:30;;;;;;;5.33;3.77;;;6.30;1.00;;;;;;5091316;28;20706;-58
2023/03/16 00:16:57;;;;;;;4.77;3.90;;;6.40;1.00;;;;;;5093801;28;20257;-58
2023/03/16 00:19:24;;;;;;;6.40;3.63;;;6.30;1.00;;;;;;5096769;28;20248;-59
2023/03/16 00:21:51;;;;;;;5.23;3.77;;;6.20;1.00;;;;;;5098885;28;20494;-59
2023/03/16 00:24:19;;;;;;;6.70;4.13;;;6.20;1.00;;;;;;5096331;28;20315;-59
2023/03/16 00:26:46;;;;;;;5.20;3.73;;;6.20;1.00;;;;;;5098216;28;20632;-59
2023/03/16 00:29:13;;;;;;;4.47;3.27;;;6.20;1.00;;;;;;5097107;28;20206;-58
2023/03/16 00:31:43;;;;;;;6.03;3.70;;;6.20;1.00;;;;;;5097425;28;20395;-59
2023/03/16 00:34:11;;;;;;;6.13;3.43;;;6.20;1.00;;;;;;5093885;28;20194;-59
2023/03/16 00:36:38;;;;;;;4.70;3.13;;;6.20;1.00;;;;;;5097292;28;20207;-59
2023/03/16 00:39:06;;;;;;;4.67;3.53;;;6.10;1.00;;;;;;5095566;28;20702;-59
2023/03/16 00:41:37;;;;;;;4.83;3.73;;;6.20;1.00;;;;;;5097862;28;20957;-59
2023/03/16 00:44:04;;;;;;;6.80;3.90;;;6.20;1.00;;;;;;5097578;28;20222;-59
2023/03/16 00:46:32;;;;;;;7.10;3.70;;;6.20;1.00;;;;;;5079787;27;20222;-59
2023/03/16 00:48:59;;;;;;;9.40;4.10;;;6.30;1.00;;;;;;5080054;28;20199;-59
2023/03/16 00:51:25;;;;;;;3.83;3.43;;;6.20;1.00;;;;;;5097262;28;20199;-59
2023/03/16 00:53:52;;;;;;;5.63;3.80;;;6.20;1.00;;;;;;5095955;28;20868;-59
2023/03/16 00:56:19;;;;;;;7.77;4.30;;;6.30;1.00;;;;;;5093160;28;20235;-61
2023/03/16 00:58:46;;;;;;;6.03;3.80;;;6.40;1.00;;;;;;5087476;28;20194;-59
2023/03/16 01:01:18;;;;;;;6.20;3.70;;;6.30;1.00;;;;;;5096166;28;20246;-59
2023/03/16 01:03:45;;;;;;;5.47;3.80;;;6.20;1.00;;;;;;5099586;28;20288;-59
2023/03/16 01:06:15;;;;;;;4.80;3.80;;;6.40;1.00;;;;;;5091645;27;20236;-59
2023/03/16 01:08:43;;;;;;;6.10;4.17;;;6.20;1.00;;;;;;5096199;28;20207;-59
2023/03/16 01:11:16;;;;;;;6.70;3.83;;;6.30;1.00;;;;;;5095986;28;20283;-59
2023/03/16 01:13:43;;;;;;;4.87;3.60;;;6.10;1.00;;;;;;5095968;28;20753;-59
2023/03/16 01:16:10;;;;;;;5.03;3.77;;;6.10;1.00;;;;;;5095003;28;20288;-59
2023/03/16 01:18:37;;;;;;;5.83;3.70;;;6.10;1.00;;;;;;5098191;28;20224;-59
2023/03/16 01:21:06;;;;;;;4.90;3.40;;;6.00;1.00;;;;;;5094179;28;20219;-59
2023/03/16 01:23:34;;;;;;;5.67;3.70;;;6.10;1.00;;;;;;5080053;28;20406;-59
2023/03/16 01:26:01;;;;;;;6.93;3.90;;;6.10;1.00;;;;;;5095958;28;20228;-59
2023/03/16 01:28:30;;;;;;;6.13;3.70;;;6.10;1.00;;;;;;5091631;28;20260;-58
2023/03/16 01:31:04;;;;;;;8.13;3.43;;;6.20;1.00;;;;;;5093618;28;20665;-59
2023/03/16 01:33:32;;;;;;;5.57;3.40;;;6.10;1.00;;;;;;5096795;28;20297;-59
2023/03/16 01:36:02;;;;;;;5.67;3.57;;;6.20;1.00;;;;;;5076808;28;20317;-59
2023/03/16 01:38:30;;;;;;;5.80;3.60;;;6.30;1.00;;;;;;5095974;28;20715;-59
2023/03/16 01:40:56;;;;;;;5.87;3.43;;;6.10;1.00;;;;;;5076996;28;20214;-59
2023/03/16 01:43:26;;;;;;;5.60;3.70;;;6.10;1.00;;;;;;5094652;28;20246;-59
2023/03/16 01:46:05;;;;;;;4.37;3.23;;;6.10;1.00;;;;;;5094132;28;20713;-59
2023/03/16 01:48:42;;;;;;;5.37;3.20;;;6.10;1.00;;;;;;5096874;28;20322;-58
2023/03/16 01:51:20;;;;;;;4.13;3.53;;;6.20;1.00;;;;;;5079159;28;20569;-59
2023/03/16 01:53:51;;;;;;;7.33;3.20;;;6.20;1.00;;;;;;5087915;28;20713;-58
2023/03/16 01:56:24;;;;;;;5.77;3.77;;;6.20;1.00;;;;;;5091915;28;20257;-59
2023/03/16 01:58:57;;;;;;;6.80;3.47;;;6.40;1.00;;;;;;5079200;28;20197;-59
2023/03/16 02:01:26;;;;;;;4.77;3.37;;;6.40;1.00;;;;;;5094601;28;21435;-59
2023/03/16 02:03:59;;;;;;;4.47;3.50;;;6.40;1.00;;;;;;5094659;28;20291;-59
2023/03/16 02:06:27;;;;;;;4.37;3.40;;;6.30;1.00;;;;;;5093736;28;20242;-58
2023/03/16 02:08:55;;;;;;;7.30;3.57;;;6.30;1.00;;;;;;5078419;28;20231;-61
2023/03/16 02:11:23;;;;;;;6.27;3.63;;;6.40;1.00;;;;;;5095158;28;20243;-59
2023/03/16 02:13:51;;;;;;;6.53;3.60;;;6.30;1.00;;;;;;5093601;28;22167;-59
2023/03/16 02:16:21;;;;;;;5.77;3.67;;;6.20;1.00;;;;;;5094741;28;20207;-65
2023/03/16 02:18:50;;;;;;;4.63;3.43;;;6.20;12.40;;;;;;5080670;28;20218;-59
2023/03/16 02:21:47;;;;;;;5.33;3.57;;;6.20;1.00;;;;;;5100818;28;20238;-59
2023/03/16 02:24:14;;;;;;;5.17;3.50;;;6.10;99.90;;;;;;5100788;28;20225;-59
2023/03/16 02:27:09;;;;;;;4.63;3.07;;;5.90;99.90;;;;;;5101173;28;20193;-59
2023/03/16 02:29:48;;;;;;;5.23;3.43;;;6.10;99.90;;;;;;5100379;28;20247;-59
2023/03/16 02:32:16;;;;;;;7.27;3.70;;;6.10;99.90;;;;;;5098907;28;20279;-59
2023/03/16 02:34:44;;;;;;;5.37;3.40;;;6.10;99.90;;;;;;5082765;28;20198;-60
2023/03/16 02:37:11;;;;;;;4.83;3.80;;;6.00;99.90;;;;;;5100221;28;20627;-59
2023/03/16 02:39:37;;;;;;;4.97;3.53;;;6.00;1.00;;;;;;5099838;28;20331;-59
2023/03/16 02:42:05;;;;;;;4.13;3.70;;;5.90;1.00;;;;;;5080167;28;20229;-59
2023/03/16 02:44:35;;;;;;;5.83;3.30;;;5.90;1.00;;;;;;5080806;28;20208;-60
2023/03/16 02:47:10;;;;;;;4.23;3.40;;;5.90;1.00;;;;;;5097919;28;20292;-59
2023/03/16 02:49:40;;;;;;;4.73;3.57;;;5.90;1.00;;;;;;5098446;28;20243;-59
2023/03/16 02:52:08;;;;;;;5.17;3.30;;;6.00;1.00;;;;;;5098032;28;20219;-59
2023/03/16 02:54:35;;;;;;;6.50;3.40;;;6.00;1.00;;;;;;5099307;28;20721;-59
2023/03/16 02:57:03;;;;;;;6.30;3.60;;;5.90;1.00;;;;;;5082028;28;20240;-59
2023/03/16 02:59:30;;;;;;;7.03;3.60;;;5.90;1.00;;;;;;5080541;28;20234;-59
2023/03/16 03:01:57;;;;;;;5.37;3.77;;;5.90;1.00;;;;;;5081246;28;20212;-59
2023/03/16 03:04:24;;;;;;;3.93;3.53;;;6.10;1.00;;;;;;5079927;28;20205;-59
2023/03/16 03:06:51;;;;;;;6.37;3.77;;;6.10;99.90;;;;;;5100578;28;20319;-58
2023/03/16 03:09:19;;;;;;;7.53;3.80;;;6.00;99.90;;;;;;5080921;28;20198;-59
2023/03/16 03:11:46;;;;;;;7.33;3.70;;;5.90;1.00;;;;;;5098746;28;20209;-59
2023/03/16 03:14:15;;;;;;;4.63;3.60;;;6.00;1.00;;;;;;5098688;28;20244;-59
2023/03/16 03:16:45;;;;;;;5.17;3.93;;;6.00;99.90;;;;;;5097855;28;20227;-59
2023/03/16 03:19:13;;;;;;;4.00;3.30;;;6.00;1.00;;;;;;5099578;28;20292;-59
2023/03/16 03:21:40;;;;;;;5.10;3.03;;;6.10;1.00;;;;;;5095910;28;20215;-61
2023/03/16 03:24:07;;;;;;;4.57;3.70;;;6.20;99.90;;;;;;5097211;27;20201;-58
2023/03/16 03:26:36;;;;;;;5.40;3.63;;;6.00;99.90;;;;;;5079928;27;20209;-58
2023/03/16 03:29:03;;;;;;;5.03;3.57;;;6.10;99.90;;;;;;5098681;28;20264;-58
2023/03/16 03:31:30;;;;;;;5.47;3.50;;;6.10;99.90;;;;;;5094995;28;20213;-62
2023/03/16 03:33:58;;;;;;;6.77;4.13;;;5.90;1.00;;;;;;5099149;28;20228;-58
2023/03/16 03:36:25;;;;;;;4.00;3.37;;;5.90;1.00;;;;;;5077751;28;20198;-59
2023/03/16 03:38:53;;;;;;;6.37;3.43;;;5.90;1.00;;;;;;5093801;28;20261;-58
2023/03/16 03:41:21;;;;;;;4.63;3.53;;;5.80;1.00;;;;;;5060253;28;20218;-58
2023/03/16 03:43:48;;;;;;;4.70;3.50;;;6.00;1.00;;;;;;5097204;28;21247;-58
2023/03/16 03:46:15;;;;;;;5.27;3.20;;;6.10;1.00;;;;;;5096260;28;20201;-61
2023/03/16 03:48:42;;;;;;;5.17;3.60;;;6.10;1.00;;;;;;5063574;28;20207;-58
2023/03/16 03:51:08;;;;;;;5.70;4.00;;;6.00;1.00;;;;;;5097065;27;20198;-58
2023/03/16 03:53:36;;;;;;;4.97;3.40;;;6.00;1.00;;;;;;5094212;28;20676;-58
2023/03/16 03:56:02;;;;;;;6.43;3.57;;;6.10;1.00;;;;;;5091746;28;20212;-58
2023/03/16 03:58:29;;;;;;;5.07;3.77;;;5.90;1.00;;;;;;5097218;27;20259;-59
2023/03/16 04:00:56;;;;;;;5.03;3.33;;;5.90;1.00;;;;;;5078556;28;20629;-59
2023/03/16 04:03:23;;;;;;;6.17;3.63;;;6.10;1.00;;;;;;5080755;28;20198;-58
2023/03/16 04:05:50;;;;;;;5.97;3.27;;;6.00;1.00;;;;;;5096044;28;20201;-58
2023/03/16 04:08:17;;;;;;;3.97;3.43;;;5.90;99.90;;;;;;5099906;27;20241;-59
2023/03/16 04:10:44;;;;;;;6.07;3.80;;;5.90;1.00;;;;;;5097568;28;20610;-59
2023/03/16 04:13:10;;;;;;;6.57;3.67;;;5.90;1.00;;;;;;5057442;28;20749;-59
2023/03/16 04:15:37;;;;;;;5.13;2.83;;;5.80;1.00;;;;;;5079190;28;20281;-59
2023/03/16 04:18:04;;;;;;;7.23;3.20;;;5.90;1.00;;;;;;5097961;28;20953;-59
2023/03/16 04:20:31;;;;;;;6.57;3.63;;;5.90;1.00;;;;;;5072363;28;20635;-59
2023/03/16 04:22:58;;;;;;;4.47;3.47;;;5.90;1.00;;;;;;5080909;28;20216;-63
2023/03/16 04:25:26;;;;;;;4.90;3.20;;;5.90;1.00;;;;;;5062291;28;20271;-59
2023/03/16 04:27:53;;;;;;;3.93;3.00;;;5.90;99.90;;;;;;5081383;28;20210;-59
2023/03/16 04:30:22;;;;;;;8.67;3.47;;;6.00;1.00;;;;;;5078123;28;20221;-59
2023/03/16 04:32:49;;;;;;;5.50;2.93;;;5.90;1.00;;;;;;5085995;28;20203;-58
2023/03/16 04:35:16;;;;;;;4.50;3.37;;;5.90;1.00;;;;;;5082746;28;20222;-58
2023/03/16 04:37:43;;;;;;;6.63;3.47;;;5.80;1.00;;;;;;5097531;28;20303;-58
2023/03/16 04:40:18;;;;;;;5.60;4.03;;;5.90;1.00;;;;;;5056203;28;20290;-59
2023/03/16 04:42:46;;;;;;;5.13;3.37;;;6.00;1.00;;;;;;5081937;28;20221;-58
2023/03/16 04:45:14;;;;;;;6.73;3.80;;;5.90;99.90;;;;;;5082644;28;21316;-59
2023/03/16 04:47:41;;;;;;;6.30;3.40;;;5.90;1.00;;;;;;5097890;28;20213;-58
2023/03/16 04:50:09;;;;;;;3.30;2.83;;;5.90;1.00;;;;;;5096568;28;20245;-58
2023/03/16 04:52:36;;;;;;;6.23;3.07;;;5.90;1.00;;;;;;5079465;28;20399;-58
2023/03/16 04:55:04;;;;;;;7.67;3.50;;;5.90;1.00;;;;;;5096436;28;20206;-58
2023/03/16 04:57:31;;;;;;;6.93;3.27;;;6.00;1.00;;;;;;5077822;28;20212;-58
2023/03/16 04:59:58;;;;;;;5.67;2.83;;;5.90;1.00;;;;;;5096464;27;20198;-61
2023/03/16 05:02:25;;;;;;;3.50;2.83;;;5.80;1.00;;;;;;5098022;28;20309;-59
2023/03/16 05:04:52;;;;;;;4.93;2.90;;;5.80;1.00;;;;;;5094820;28;20548;-60
2023/03/16 05:07:19;;;;;;;3.90;2.70;;;5.80;1.00;;;;;;5074805;28;20292;-60
2023/03/16 05:09:45;;;;;;;5.53;3.10;;;5.80;1.00;;;;;;5088026;28;20647;-60
2023/03/16 05:12:12;;;;;;;4.93;2.80;;;5.80;1.00;;;;;;5052049;28;20215;-60
2023/03/16 05:14:39;;;;;;;7.17;3.43;;;5.90;1.00;;;;;;5071709;28;20348;-60
2023/03/16 05:17:06;;;;;;;5.33;2.80;;;5.90;1.00;;;;;;5056232;28;20240;-60
2023/03/16 05:19:33;;;;;;;4.10;2.57;;;5.90;1.00;;;;;;5073941;28;20829;-60
2023/03/16 05:22:00;;;;;;;7.20;2.90;;;5.90;1.00;;;;;;5091342;28;20210;-60
2023/03/16 05:24:27;;;;;;;9.97;3.40;;;5.80;1.00;;;;;;5091043;28;20295;-60
2023/03/16 05:26:54;;;;;;;3.77;2.60;;;5.70;99.90;;;;;;5090766;28;20198;-58
2023/03/16 05:29:21;;;;;;;2.77;2.40;;;5.70;99.90;;;;;;5090896;28;20284;-60
2023/03/16 05:31:47;;;;;;;3.23;2.53;;;5.80;88.00;;;;;;5093361;28;20212;-60
2023/03/16 05:34:14;;;;;;;3.37;2.63;;;5.90;61.00;;;;;;5092641;28;20258;-60
2023/03/16 05:36:43;;;;;;;2.80;2.33;;;5.70;99.90;;;;;;5074965;28;20311;-61
2023/03/16 05:39:10;;;;;;;5.37;2.57;;;5.80;99.90;;;;;;5093185;28;20240;-61
2023/03/16 05:41:38;;;;;;;2.93;2.13;;;5.70;99.90;;;;;;5092133;28;20209;-60
2023/03/16 05:44:05;;;;;;;4.07;2.33;;;5.70;99.90;;;;;;5092480;28;20248;-60
2023/03/16 05:46:32;;;;;;;3.53;2.47;;;5.80;99.90;;;;;;5073948;28;20284;-61
2023/03/16 05:48:59;;;;;;;2.43;2.20;;;5.90;99.90;;;;;;5093447;28;20200;-60
2023/03/16 05:51:26;;;;;;;4.37;2.77;;;5.90;99.90;;;;;;5092621;28;20674;-60
2023/03/16 05:53:57;;;;;;;6.90;2.43;;;6.00;61.50;;;;;;5085499;28;20770;-63
2023/03/16 05:56:25;;;;;;;5.60;2.43;;;6.00;99.90;;;;;;5089581;28;20219;-61
2023/03/16 05:58:54;;;;;;;5.37;3.00;;;5.90;99.90;;;;;;5088749;28;20289;-60
2023/03/16 06:01:22;;;;;;;4.03;2.70;;;5.90;99.90;;;;;;5089974;28;20221;-58
2023/03/16 06:03:50;;;;;;;6.03;2.90;;;5.80;99.90;;;;;;5093203;28;20232;-58
2023/03/16 06:06:22;;;;;;;6.33;2.57;;;5.90;99.90;;;;;;5077597;28;20259;-60
2023/03/16 06:08:49;;;;;;;4.63;2.60;;;5.90;99.90;;;;;;5094809;28;20205;-60
2023/03/16 06:11:16;;;;;;;3.43;2.80;;;6.10;99.90;;;;;;5095607;28;20198;-58
2023/03/16 06:13:43;;;;;;;3.17;2.33;;;6.00;99.90;;;;;;5095107;28;20970;-58
2023/03/16 06:16:12;;;;;;;4.37;2.80;;;6.10;1.00;;;;;;5093585;28;20281;-61
2023/03/16 06:18:40;;;;;;;3.97;2.40;;;6.10;1.00;;;;;;5085703;28;20233;-58
2023/03/16 06:21:07;;;;;;;5.17;2.20;;;6.10;1.00;;;;;;5089418;28;20661;-58
2023/03/16 06:23:34;;;;;;;5.40;2.70;;;6.10;1.00;;;;;;5097689;28;20215;-58
2023/03/16 06:26:01;;;;;;;3.53;2.60;;;6.20;1.00;;;;;;5087763;28;20216;-59
2023/03/16 06:28:28;;;;;;;6.63;2.43;;;6.30;1.00;;;;;;5076846;28;20230;-60
2023/03/16 06:30:56;;;;;;;7.10;2.30;;;6.10;1.00;;;;;;5091885;28;20282;-59
2023/03/16 06:33:23;;;;;;;3.90;2.13;;;6.20;1.00;;;;;;5088209;28;22405;-59
2023/03/16 06:35:50;;;;;;;3.53;2.53;;;6.20;1.00;;;;;;5090564;28;20298;-59
2023/03/16 06:38:17;;;;;;;3.20;2.17;;;6.20;1.00;;;;;;5070215;28;20905;-59
2023/03/16 06:40:44;;;;;;;3.37;2.37;;;6.10;1.00;;;;;;5049950;28;20274;-59
2023/03/16 06:43:11;;;;;;;3.20;1.83;;;6.20;1.00;;;;;;5090186;28;20253;-59
2023/03/16 06:45:38;;;;;;;4.33;2.50;;;6.20;1.00;;;;;;5097936;28;21859;-59
2023/03/16 06:48:06;;;;;;;3.37;2.67;;;6.20;1.00;;;;;;5098194;28;20864;-59
2023/03/16 06:50:32;;;;;;;3.83;2.10;;;6.30;1.00;;;;;;5099678;28;20195;-58
2023/03/16 06:52:59;;;;;;;3.33;2.10;;;6.30;1.00;;;;;;5100162;28;20209;-59
2023/03/16 06:55:26;;;;;;;5.73;2.40;;;6.40;1.00;;;;;;5081041;28;20284;-59
2023/03/16 06:57:53;;;;;;;5.83;2.50;;;6.30;1.00;;;;;;5098070;28;20642;-58
2023/03/16 07:00:20;;;;;;;5.73;3.70;;;6.30;1.00;;;;;;5080266;28;20293;-59
2023/03/16 07:02:47;;;;;;;4.60;2.43;;;6.40;1.00;;;;;;5099766;28;20212;-59
2023/03/16 07:05:14;;;;;;;4.63;1.93;;;6.40;1.00;;;;;;5095737;28;20203;-58
2023/03/16 07:07:41;;;;;;;3.93;2.30;;;6.40;1.00;;;;;;5067561;28;20190;-58
2023/03/16 07:10:14;;;;;;;3.70;2.13;;;6.50;1.00;;;;;;5098644;28;20217;-59
2023/03/16 07:12:41;;;;;;;3.57;2.27;;;6.50;1.00;;;;;;5094930;28;20290;-59
2023/03/16 07:15:09;;;;;;;3.67;2.47;;;6.40;1.00;;;;;;4703213;28;10000546;-59
2023/03/16 07:17:37;;;;;;;5.13;2.60;;;6.40;1.00;;;;;;5083066;28;20230;-58
2023/03/16 07:20:08;;;;;;;4.33;2.60;;;6.50;1.00;;;;;;5092899;28;20294;-59
2023/03/16 07:22:36;;;;;;;3.37;2.17;;;6.50;1.00;;;;;;5090794;28;20214;-59
2023/03/16 07:25:03;;;;;;;3.67;2.60;;;6.40;1.00;;;;;;5058960;28;20209;-59
2023/03/16 07:27:30;;;;;;;4.03;2.17;;;6.50;1.00;;;;;;5059788;28;20270;-59
2023/03/16 07:29:59;;;;;;;6.33;1.70;;;6.60;1.00;;;;;;5090270;28;20288;-59
2023/03/16 07:32:26;;;;;;;2.83;2.17;;;6.50;99.90;;;;;;5058184;27;20213;-58
2023/03/16 07:34:53;;;;;;;4.13;2.70;;;6.60;1.00;;;;;;5096245;28;20209;-60
2023/03/16 07:37:20;;;;;;;4.20;3.03;;;6.50;1.00;;;;;;5085068;28;20621;-60
2023/03/16 07:39:51;;;;;;;5.50;2.17;;;6.60;99.90;;;;;;5097847;28;20214;-60
2023/03/16 07:42:18;;;;;;;4.93;2.20;;;6.60;1.00;;;;;;5097522;28;20225;-60
2023/03/16 07:44:45;;;;;;;4.20;2.43;;;6.60;1.00;;;;;;5074136;28;20601;-60
2023/03/16 07:47:12;;;;;;;4.37;2.30;;;6.60;99.90;;;;;;5074575;28;20191;-59
2023/03/16 07:49:40;;;;;;;6.23;2.20;;;6.70;99.90;;;;;;5071968;28;20282;-59
2023/03/16 07:52:07;;;;;;;5.37;2.70;;;6.80;99.90;;;;;;5074146;28;20303;-59
2023/03/16 07:54:34;;;;;;;5.07;2.30;;;6.80;99.90;;;;;;5091284;28;20222;-59
2023/03/16 07:57:01;;;;;;;3.50;2.13;;;6.70;99.90;;;;;;5067404;28;20625;-59
2023/03/16 07:59:28;;;;;;;5.17;2.50;;;6.80;99.90;;;;;;5090151;28;20321;-59
2023/03/16 08:01:55;;;;;;;4.43;2.63;;;6.80;99.90;;;;;;5091806;28;20203;-59
2023/03/16 08:04:22;;;;;;;3.43;2.77;;;6.80;99.90;;;;;;5092521;28;20284;-59
2023/03/16 08:06:51;;;;;;;6.73;2.80;;;6.90;99.90;;;;;;5074481;28;20733;-59
2023/03/16 08:09:18;;;;;;;3.97;2.77;;;6.90;99.90;;;;;;5085583;28;20329;-59
2023/03/16 08:11:44;;;;;;;3.30;2.10;;;6.90;99.90;;;;;;5075033;28;20261;-59
2023/03/16 08:14:12;;;;;;;5.10;2.50;;;7.00;99.90;;;;;;5089058;28;20191;-59
2023/03/16 08:16:38;;;;;;;4.47;2.67;;;7.10;99.90;;;;;;5079018;28;20235;-58
2023/03/16 08:19:05;;;;;;;4.73;2.33;;;7.10;72.90;;;;;;5086178;28;20230;-58
2023/03/16 08:21:32;;;;;;;5.87;2.80;;;7.00;1.00;;;;;;5076101;28;20206;-58
2023/03/16 08:24:03;;;;;;;2.90;2.30;;;7.00;1.00;;;;;;5084860;27;21656;-58
2023/03/16 08:26:30;;;;;;;5.93;2.50;;;7.10;1.00;;;;;;5085818;27;20252;-58
2023/03/16 08:29:01;;;;;;;4.90;2.50;;;7.20;1.00;;;;;;5056354;28;20210;-58
2023/03/16 08:31:29;;;;;;;3.80;2.10;;;7.20;1.00;;;;;;5092998;28;20198;-59
2023/03/16 08:33:56;;;;;;;3.80;2.30;;;7.20;1.00;;;;;;5076344;28;20538;-59
2023/03/16 08:36:23;;;;;;;5.97;2.37;;;7.30;1.00;;;;;;5093481;28;20630;-58
2023/03/16 08:38:51;;;;;;;4.03;1.97;;;7.40;1.00;;;;;;5091510;28;20235;-60
2023/03/16 08:41:33;;;;;;;3.87;2.30;;;7.40;1.00;;;;;;5066603;28;20701;-58
2023/03/16 08:44:01;;;;;;;6.10;2.30;;;7.50;1.00;;;;;;5084574;27;20291;-58
2023/03/16 08:46:29;;;;;;;3.10;2.20;;;7.50;1.00;;;;;;5080848;28;20294;-59
2023/03/16 08:48:56;;;;;;;3.47;1.90;;;7.60;1.00;;;;;;5074617;28;20241;-59
2023/03/16 08:51:23;;;;;;;2.60;1.90;;;7.60;1.00;;;;;;5092643;28;20200;-58
2023/03/16 08:53:50;;;;;;;5.27;2.60;;;7.60;1.00;;;;;;5072848;28;20235;-59
2023/03/16 08:56:17;;;;;;;3.53;2.23;;;7.60;1.00;;;;;;5089203;28;20279;-59
2023/03/16 08:58:44;;;;;;;2.90;2.10;;;7.60;1.00;;;;;;5071879;28;20212;-59
2023/03/16 09:01:16;;;;;;;5.73;2.10;;;7.60;1.00;;;;;;5074542;28;20644;-58
2023/03/16 09:03:45;;;;;;;2.47;1.87;;;7.70;1.00;;;;;;5079184;28;20638;-59
2023/03/16 09:06:14;;;;;;;5.43;2.40;;;7.70;1.00;;;;;;5094907;27;20198;-59
2023/03/16 09:08:44;;;;;;;2.63;1.80;;;7.80;1.00;;;;;;5096166;28;20659;-59
2023/03/16 09:11:16;;;;;;;6.73;3.00;;;7.80;1.00;;;;;;5096510;28;20195;-59
2023/03/16 09:13:43;;;;;;;2.90;1.87;;;7.90;1.00;;;;;;5092174;28;20212;-59
2023/03/16 09:16:12;;;;;;;6.27;2.33;;;8.00;99.90;;;;;;5092039;28;20209;-59
2023/03/16 09:18:40;;;;;;;4.30;1.73;;;8.00;99.90;;;;;;5073372;28;20235;-59
2023/03/16 09:21:11;;;;;;;2.77;1.93;;;8.00;1.00;;;;;;5087804;28;20192;-60
2023/03/16 09:23:41;;;;;;;3.53;2.20;;;8.10;1.00;;;;;;5095433;28;20222;-60
2023/03/16 09:26:09;;;;;;;5.83;2.10;;;8.10;99.90;;;;;;5091628;28;20194;-59
2023/03/16 09:28:37;;;;;;;6.50;3.13;;;8.30;99.90;;;;;;5098237;28;20294;-59
2023/03/16 09:31:06;;;;;;;2.73;2.23;;;8.50;99.90;;;;;;5078464;28;20215;-59
2023/03/16 09:33:34;;;;;;;4.23;2.23;;;8.70;99.90;;;;;;5095633;28;20204;-59
2023/03/16 09:36:02;;;;;;;4.93;2.40;;;8.70;99.90;;;;;;5094370;28;20236;-59
2023/03/16 09:38:29;;;;;;;3.83;2.27;;;8.70;99.90;;;;;;5081338;28;20241;-59
2023/03/16 09:41:05;;;;;;;3.90;2.30;;;8.70;99.90;;;;;;5099615;28;20359;-59
2023/03/16 09:43:52;;;;;;;3.33;2.10;;;8.70;99.90;;;;;;5098860;28;20547;-59
2023/03/16 09:46:25;;;;;;;4.63;2.23;;;8.70;99.90;;;;;;5095822;28;20206;-59
2023/03/16 09:48:54;;;;;;;2.97;1.80;;;8.70;99.90;;;;;;5098866;28;20619;-59
2023/03/16 09:51:37;;;;;;;6.43;2.37;;;9.00;99.90;;;;;;5101050;28;20702;-61
2023/03/16 09:54:29;;;;;;;5.33;2.33;;;9.20;99.90;;;;;;5101107;28;20228;-59
2023/03/16 09:56:59;;;;;;;2.00;1.67;;;9.50;99.90;;;;;;5085185;28;20656;-59
2023/03/16 09:59:27;;;;;;;4.97;2.03;;;9.50;1.00;;;;;;5096349;28;20200;-59
2023/03/16 10:02:17;;;;;;;4.97;2.40;;;9.60;1.00;;;;;;5064936;28;20238;-59
2023/03/16 10:05:02;;;;;;;2.87;1.67;;;9.80;13.90;;;;;;5062434;28;20235;-59
2023/03/16 10:08:00;;;;;;;3.97;1.97;;;9.90;1.00;;;;;;5083927;28;20211;-60
2023/03/16 10:10:35;;;;;;;2.73;1.83;;;10.00;1.00;;;;;;5078006;28;20198;-60
2023/03/16 10:13:04;;;;;;;3.37;2.00;;;10.30;1.00;;;;;;5096146;28;20244;-59
2023/03/16 10:15:35;;;;;;;3.83;2.03;;;10.50;1.00;;;;;;5074723;28;20204;-59
2023/03/16 10:18:17;;;;;;;3.43;1.73;;;10.50;1.00;;;;;;5100041;28;20768;-59
2023/03/16 10:20:46;;;;;;;2.77;1.70;;;10.60;1.00;;;;;;5092379;28;20225;-59
2023/03/16 10:23:21;;;;;;;2.47;1.63;;;10.70;1.00;;;;;;5091803;28;20636;-60
2023/03/16 10:25:55;;;;;;;3.70;1.20;;;10.80;1.00;;;;;;5098091;28;20199;-60
2023/03/16 10:28:25;;;;;;;4.20;1.57;;;10.90;1.00;;;;;;5097410;27;20651;-60
2023/03/16 10:30:58;;;;;;;3.80;1.83;;;10.90;1.00;;;;;;5099012;28;20197;-59
2023/03/16 10:33:29;;;;;;;3.37;1.57;;;11.10;1.00;;;;;;5081604;28;20263;-59
2023/03/16 10:36:02;;;;;;;2.87;1.53;;;11.20;1.00;;;;;;5094959;28;20205;-60
2023/03/16 10:38:39;;;;;;;4.90;1.43;;;11.10;1.00;;;;;;5098429;28;20245;-60
2023/03/16 10:41:21;;;;;;;2.53;1.47;;;11.10;1.00;;;;;;5095924;28;20198;-59
2023/03/16 10:43:59;;;;;;;2.67;1.73;;;11.30;1.00;;;;;;5094718;28;20708;-60
2023/03/16 10:46:27;;;;;;;2.87;1.60;;;11.20;1.00;;;;;;5093272;28;20326;-60
2023/03/16 10:48:59;;;;;;;4.77;1.83;;;11.60;1.00;;;;;;5095068;28;20209;-59
2023/03/16 10:51:36;;;;;;;3.00;1.70;;;11.60;1.00;;;;;;5096234;28;20632;-59
2023/03/16 10:54:13;;;;;;;3.47;1.53;;;11.60;1.00;;;;;;5092619;28;20547;-60
2023/03/16 10:56:39;;;;;;;4.17;1.50;;;11.40;1.00;;;;;;5099079;28;20578;-59
2023/03/16 10:59:32;;;;;;;2.87;1.60;;;11.40;1.00;;;;;;5077459;28;20259;-59
2023/03/16 11:02:02;;;;;;;2.13;1.23;;;11.30;1.00;;;;;;5095045;28;20621;-59
2023/03/16 11:04:32;;;;;;;3.67;1.60;;;11.20;1.00;;;;;;5097780;28;20648;-59
2023/03/16 11:06:59;;;;;;;4.70;1.73;;;11.40;1.00;;;;;;5100262;28;20206;-59
2023/03/16 11:09:36;;;;;;;3.00;1.37;;;11.20;1.00;;;;;;5081422;28;20221;-59
2023/03/16 11:12:23;;;;;;;2.23;1.70;;;11.30;1.00;;;;;;5073531;28;20222;-59
2023/03/16 11:14:51;;;;;;;3.93;1.33;;;11.50;1.00;;;;;;5092219;27;20259;-60
2023/03/16 11:17:37;;;;;;;3.83;1.70;;;11.60;1.00;;;;;;5097828;27;20251;-59
2023/03/16 11:20:16;;;;;;;1.73;1.40;;;11.60;1.00;;;;;;5078426;28;20207;-59
2023/03/16 11:22:45;;;;;;;3.10;1.33;;;11.80;1.00;;;;;;5098748;28;20242;-59
2023/03/16 11:25:36;;;;;;;2.30;1.30;;;11.80;1.00;;;;;;5094617;27;20228;-59
2023/03/16 11:28:11;;;;;;;3.20;1.50;;;11.70;1.00;;;;;;5078973;28;20282;-60
2023/03/16 11:31:12;;;;;;;1.83;1.30;;;11.70;1.00;;;;;;5092926;27;20194;-60
2023/03/16 11:33:40;;;;;;;2.37;1.40;;;11.70;1.00;;;;;;5081793;28;20301;-60
2023/03/16 11:36:42;;;;;;;1.30;1.13;;;11.80;1.00;;;;;;5088620;27;20238;-59
2023/03/16 11:39:27;;;;;;;2.47;1.40;;;12.10;1.00;;;;;;5075280;27;20283;-59
2023/03/16 11:41:54;;;;;;;4.67;1.20;;;11.90;1.00;;;;;;5095905;28;20318;-60
2023/03/16 11:44:28;;;;;;;3.00;1.10;;;12.00;1.00;;;;;;5093358;28;20301;-60
2023/03/16 11:47:22;;;;;;;2.10;1.27;;;11.90;1.00;;;;;;5093177;28;20198;-59
2023/03/16 11:49:54;;;;;;;2.77;1.10;;;12.00;1.00;;;;;;5094554;28;20269;-59
2023/03/16 11:52:45;;;;;;;1.80;1.10;;;12.00;1.00;;;;;;5092087;28;20202;-59
2023/03/16 11:55:27;;;;;;;1.83;1.00;;;12.10;1.00;;;;;;5092775;28;20199;-59
2023/03/16 11:58:12;;;;;;;2.30;1.10;;;12.20;1.00;;;;;;5095982;28;20198;-60
2023/03/16 12:01:06;;;;;;;1.90;1.10;;;12.20;1.00;;;;;;5085824;28;20206;-60
2023/03/16 12:03:38;;;;;;;4.10;1.40;;;12.30;1.00;;;;;;5088093;28;20288;-60
2023/03/16 12:06:12;;;;;;;3.13;1.53;;;12.40;1.00;;;;;;5086952;28;20195;-59
2023/03/16 12:09:16;;;;;;;2.83;1.37;;;12.50;1.00;;;;;;5092457;28;20204;-59
2023/03/16 12:11:50;;;;;;;3.17;1.10;;;12.50;1.00;;;;;;5094823;28;20227;-62
2023/03/16 12:14:33;;;;;;;1.53;1.20;;;12.70;1.00;;;;;;5091035;28;20636;-59
2023/03/16 12:17:14;;;;;;;3.93;1.80;;;13.00;1.00;;;;;;5096139;28;20211;-60
2023/03/16 12:19:55;;;;;;;3.53;1.13;;;13.60;1.00;;;;;;5094345;28;20546;-60
2023/03/16 12:22:33;;;;;;;2.37;1.10;;;13.80;1.00;;;;;;5093929;28;20238;-60
2023/03/16 12:25:02;;;;;;;2.67;1.10;;;13.80;1.00;;;;;;5091593;28;20214;-59
2023/03/16 12:27:33;;;;;;;2.83;1.30;;;13.90;1.00;;;;;;5087527;28;20409;-59
2023/03/16 12:30:09;;;;;;;1.83;1.20;;;14.00;1.00;;;;;;5091058;28;20192;-59
2023/03/16 12:32:42;;;;;;;2.03;1.07;;;14.10;1.00;;;;;;5093109;27;20202;-59
2023/03/16 12:35:29;;;;;;;3.27;1.20;;;13.90;1.00;;;;;;5090458;28;20570;-60
2023/03/16 12:38:11;;;;;;;1.50;0.70;;;14.20;1.00;;;;;;5093561;28;20656;-60
2023/03/16 12:40:48;;;;;;;1.93;0.93;;;13.90;1.00;;;;;;5092219;28;20258;-59
2023/03/16 12:43:49;;;;;;;1.80;0.60;;;13.80;1.00;;;;;;5090183;28;20276;-60
2023/03/16 12:46:47;;;;;;;2.60;1.00;;;13.70;1.00;;;;;;5089973;28;20385;-59
2023/03/16 12:49:14;;;;;;;1.67;0.70;;;13.80;1.00;;;;;;5092310;28;20230;-59
2023/03/16 12:51:42;;;;;;;3.77;0.80;;;13.90;1.00;;;;;;5094133;28;20254;-59
2023/03/16 12:54:21;;;;;;;2.17;1.17;;;14.10;1.00;;;;;;5089481;28;20209;-59
2023/03/16 12:56:50;;;;;;;4.23;1.03;;;14.40;1.00;;;;;;5093756;28;20230;-60
2023/03/16 12:59:20;;;;;;;2.70;0.90;;;14.50;1.00;;;;;;5093048;28;20992;-59
2023/03/16 13:01:56;;;;;;;1.97;1.03;;;14.60;1.00;;;;;;5095878;28;20278;-61
2023/03/16 13:04:33;;;;;;;5.03;2.27;;;14.60;1.00;;;;;;5098920;27;20547;-61
2023/03/16 13:07:04;;;;;;;1.90;0.80;;;14.50;1.00;;;;;;5088990;28;20284;-62
2023/03/16 13:09:40;;;;;;;3.43;1.20;;;14.40;1.00;;;;;;5092412;28;20209;-61
2023/03/16 13:12:09;;;;;;;2.50;1.00;;;14.40;1.00;;;;;;5087900;28;21382;-61
2023/03/16 13:14:42;;;;;;;1.87;0.93;;;14.60;1.00;;;;;;5079998;28;20202;-61
2023/03/16 13:17:14;;;;;;;4.23;1.03;;;14.40;1.00;;;;;;5084247;28;20296;-61
2023/03/16 13:19:44;;;;;;;2.90;0.80;;;14.50;1.00;;;;;;5089000;28;20569;-59
2023/03/16 13:22:31;;;;;;;1.97;0.80;;;14.80;1.00;;;;;;5092675;28;20206;-60